ADDS METAR Data INFO
IDs: Format: Raw Decoded Include TAF

Data at: 1232 UTC 20 Jul 2017

METAR for:KVCT (Victoria Rgnl, TX, US)
Text:KVCT 201151Z 05004KT 7SM SCT021 24/24 A3011 RMK AO2 SLP194 T02440239 10261 20244 53008
Temperature: 24.4°C ( 76°F)
Dewpoint: 23.9°C ( 75°F) [RH = 97%]
Pressure (altimeter):30.11 inches Hg (1019.7 mb) [Sea level pressure: 1019.4 mb]
Winds:from the NE (50 degrees) at 5 MPH (4 knots; 2.1 m/s)
Visibility: 7 sm ( 11 km)
Ceiling:at least 12,000 feet AGL
Clouds: scattered clouds at 2100 feet AGL